Latest Weather Observations for Flinders Island Airport

IDT60801

Issued at 11:01 pm EDT Saturday 20 December 2014 (issued every 30 minutes, with the page automatically refreshed every 10 minutes)

About weather observations | Map of weather stations | Latest weather observations for TAS | Other Formats
Station Details ID: 099005 Name: FLINDERS ISLAND AIRPORT Lat: -40.09 Lon: 148.00 Height: 9.0 m
Data from the previous 72 hours. | See also: Recent months at Flinders Island Airport
Date/Time
EDT
Temp
°C
App
Temp
°C
Dew
Point
Rel
Hum
%
Delta-T
°C
Wind Press
QNH
hPa
Press
MSL
hPa
Rain
since 9 am
mm
Dir
 
Spd
km/h
Gust
km/h
Spd
kts
Gust
kts
20/11:00pm 16.4 13.0 12.6 78 2.1 WSW 22 28 12 15 1016.3 1016.3 0.0
20/10:43pm 16.4 12.6 12.4 77 2.2 WSW 24 28 13 15 1016.3 1016.3 0.0
20/10:30pm 16.1 12.7 12.5 79 2.0 WSW 22 30 12 16 1016.3 1016.3 0.0
20/10:00pm 16.0 12.9 12.2 78 2.1 W 20 28 11 15 1016.0 1016.0 0.0
20/09:30pm 16.0 12.1 12.2 78 2.1 W 24 33 13 18 1015.8 1015.8 0.0
20/09:00pm 16.2 10.8 12.2 77 2.2 W 32 37 17 20 1015.4 1015.4 0.0
20/08:30pm 16.4 10.9 12.4 77 2.2 W 33 44 18 24 1015.2 1015.2 0.0
20/08:00pm 16.8 11.3 12.3 75 2.5 W 33 46 18 25 1014.9 1014.9 0.0
20/07:30pm 17.3 11.7 12.2 72 2.8 W 33 43 18 23 1014.7 1014.7 0.0
20/07:00pm 17.6 11.8 12.7 73 2.7 W 35 44 19 24 1014.4 1014.4 0.0
20/06:30pm 18.1 11.6 13.0 72 2.9 W 39 50 21 27 1014.0 1014.0 0.0
20/06:00pm 18.9 12.4 12.9 68 3.4 W 39 50 21 27 1014.0 1014.0 0.0
20/05:30pm 18.4 12.2 12.8 70 3.1 W 37 46 20 25 1014.0 1014.0 0.0
20/05:00pm 19.2 12.8 13.2 68 3.4 W 39 46 21 25 1014.2 1014.2 0.0
20/04:30pm 18.8 12.4 13.2 70 3.2 WNW 39 48 21 26 1014.3 1014.3 0.0
20/04:00pm 18.9 12.5 13.3 70 3.2 WNW 39 48 21 26 1014.5 1014.5 0.0
20/03:56pm 19.0 13.1 13.6 71 3.1 WNW 37 48 20 26 1014.5 1014.5 0.0
20/03:30pm 18.6 12.7 13.5 72 2.9 W 37 52 20 28 1014.8 1014.8 0.0
20/03:00pm 18.5 12.4 13.1 71 3.0 W 37 46 20 25 1014.9 1014.9 0.0
20/02:30pm 18.3 12.3 13.4 73 2.8 W 37 44 20 24 1015.1 1015.1 0.0
20/02:00pm 18.8 13.4 13.9 73 2.8 W 35 48 19 26 1014.9 1014.9 0.0
20/01:30pm 17.9 11.5 13.2 74 2.6 W 39 50 21 27 1015.1 1015.1 0.0
20/01:00pm 17.6 11.1 12.9 74 2.6 W 39 52 21 28 1015.4 1015.4 0.0
20/12:30pm 17.7 11.1 12.6 72 2.8 W 39 50 21 27 1015.4 1015.4 0.0
20/12:00pm 17.4 11.3 12.9 75 2.5 W 37 48 20 26 1015.5 1015.5 0.0
20/11:30am 17.9 11.6 12.4 70 3.1 W 37 46 20 25 1015.4 1015.4 0.0
20/11:29am 17.7 11.8 12.4 71 2.9 W 35 46 19 25 1015.4 1015.4 0.0
20/11:14am 18.3 12.5 12.7 70 3.1 W 35 46 19 25 1015.3 1015.3 0.0
20/11:00am 17.9 12.0 12.4 70 3.0 W 35 46 19 25 1015.4 1015.4 0.0
20/10:44am 17.5 10.7 12.0 70 3.0 W 39 46 21 25 1015.3 1015.3 0.0
20/10:30am 18.2 11.9 12.4 69 3.2 W 37 48 20 26 1015.3 1015.3 0.0
20/10:26am 18.4 12.1 12.4 68 3.3 W 37 48 20 26 1015.3 1015.3 0.0
20/10:00am 16.6 11.7 12.6 77 2.2 W 30 39 16 21 1015.6 1015.6 0.0
20/09:36am 16.2 9.4 11.8 75 2.4 W 39 50 21 27 1015.5 1015.5 0.0
20/09:30am 16.3 9.8 11.7 74 2.5 W 37 46 20 25 1015.4 1015.4 0.0
20/09:00am 16.2 10.1 11.6 74 2.5 W 35 44 19 24 1015.6 1015.6 0.0
20/08:30am 16.2 10.5 11.8 75 2.4 W 33 48 18 26 1015.4 1015.4 0.0
20/08:00am 15.2 10.5 12.0 81 1.7 WNW 28 37 15 20 1015.2 1015.2 0.0
20/07:30am 15.6 10.3 11.2 75 2.4 WNW 30 41 16 22 1015.2 1015.2 0.0
20/07:00am 15.3 10.0 11.1 76 2.2 W 30 37 16 20 1015.0 1015.0 0.0
20/06:30am 15.4 9.9 10.6 73 2.5 W 30 37 16 20 1015.0 1015.0 0.0
20/05:30am 14.8 8.7 10.6 76 2.2 W 33 43 18 23 1014.6 1014.6 0.0
20/05:00am 14.5 7.7 10.7 78 2.0 W 37 41 20 22 1014.3 1014.3 0.0
20/04:30am 14.6 7.3 10.2 75 2.3 WSW 39 48 21 26 1014.1 1014.1 0.0
20/04:00am 14.4 7.7 9.6 73 2.5 WSW 35 43 19 23 1014.2 1014.2 0.0
20/03:30am 14.4 7.4 9.8 74 2.4 WSW 37 44 20 24 1014.3 1014.3 0.0
20/03:00am 14.4 6.9 9.6 73 2.5 WSW 39 46 21 25 1014.5 1014.5 0.0
20/02:30am 14.4 7.2 9.0 70 2.7 WSW 37 44 20 24 1014.7 1014.7 0.0
20/02:00am 14.4 6.2 8.4 67 3.0 WSW 41 48 22 26 1015.0 1015.0 0.0
20/01:00am 14.7 5.9 8.0 64 3.3 WSW 44 52 24 28 1015.4 1015.4 0.0
20/12:30am 14.9 6.7 9.7 71 2.7 WSW 43 50 23 27 1015.5 1015.5 0.0
20/12:00am 15.1 7.4 8.8 66 3.2 WSW 39 50 21 27 1015.7 1015.7 0.0
 
Date/Time
EDT
Temp
°C
App
Temp
°C
Dew
Point
Rel
Hum
%
Delta-T
°C
Wind Press
QNH
hPa
Press
MSL
hPa
Rain
since 9 am
mm
Dir
 
Spd
km/h
Gust
km/h
Spd
kts
Gust
kts
19/11:30pm 15.2 6.8 8.9 66 3.2 WSW 43 52 23 28 1016.0 1016.0 0.0
19/11:00pm 15.5 6.8 9.8 69 3.0 WSW 46 56 25 30 1016.1 1016.1 0.0
19/10:30pm 15.7 7.1 8.9 64 3.5 WSW 44 54 24 29 1016.1 1016.1 0.0
19/10:00pm 15.8 7.4 9.5 66 3.3 W 44 54 24 29 1016.0 1016.0 0.0
19/09:30pm 15.7 7.2 9.4 66 3.3 W 44 52 24 28 1015.7 1015.7 0.0
19/09:00pm 15.8 6.7 8.3 61 3.8 WSW 46 54 25 29 1015.6 1015.6 0.0
19/08:30pm 15.6 6.9 8.6 63 3.6 W 44 52 24 28 1015.5 1015.5 0.0
19/08:00pm 15.6 6.9 8.4 62 3.6 W 44 54 24 29 1015.3 1015.3 0.0
19/07:30pm 15.9 7.6 9.3 65 3.4 WSW 43 56 23 30 1015.0 1015.0 0.0
19/07:00pm 16.4 7.7 8.6 60 4.0 WSW 44 54 24 29 1014.8 1014.8 0.0
19/06:30pm 16.6 8.0 8.1 57 4.3 W 43 52 23 28 1014.5 1014.5 0.0
19/06:00pm 16.8 8.2 8.2 57 4.4 W 43 52 23 28 1014.3 1014.3 0.0
19/05:30pm 16.6 7.9 8.3 58 4.2 W 44 54 24 29 1014.4 1014.4 0.0
19/05:00pm 17.2 8.9 7.8 54 4.7 W 41 52 22 28 1014.3 1014.3 0.0
19/04:30pm 17.2 9.2 7.5 53 4.9 WSW 39 50 21 27 1014.2 1014.2 0.0
19/04:00pm 16.9 8.9 7.5 54 4.7 W 39 50 21 27 1014.3 1014.3 0.0
19/03:30pm 17.7 9.8 7.7 52 5.1 WSW 39 50 21 27 1014.2 1014.2 0.0
19/03:00pm 17.6 10.3 7.4 51 5.1 WSW 35 43 19 23 1014.5 1014.5 0.0
19/02:30pm 17.6 10.6 8.5 55 4.7 WSW 35 41 19 22 1014.5 1014.5 0.0
19/02:00pm 17.1 9.5 7.7 54 4.7 WSW 37 44 20 24 1014.3 1014.3 0.0
19/01:30pm 17.1 9.8 7.2 52 4.9 WSW 35 46 19 25 1014.0 1014.0 0.0
19/01:00pm 17.2 11.3 7.5 53 4.9 WSW 28 35 15 19 1013.8 1013.8 0.0
19/12:30pm 17.0 11.1 7.4 53 4.8 WSW 28 35 15 19 1013.5 1013.5 0.0
19/12:00pm 17.1 11.5 7.2 52 4.9 WSW 26 33 14 18 1013.3 1013.3 0.0
19/11:30am 16.1 10.9 7.3 56 4.4 SW 24 30 13 16 1013.3 1013.3 0.0
19/11:00am 16.1 11.8 7.8 58 4.2 SW 20 30 11 16 1013.1 1013.1 0.0
19/10:30am 16.2 11.4 7.4 56 4.4 SW 22 30 12 16 1013.0 1013.0 0.0
19/10:00am 16.4 10.6 7.9 57 4.3 SW 28 33 15 18 1012.9 1012.9 0.0
19/09:30am 14.9 8.6 7.5 61 3.7 WSW 30 37 16 20 1012.9 1012.9 0.0
19/09:00am 15.3 9.5 7.8 61 3.7 WSW 28 37 15 20 1012.8 1012.8 0.0
19/08:30am 15.9 9.3 7.9 59 4.0 WSW 32 39 17 21 1012.3 1012.3 0.0
19/08:00am 15.4 8.8 7.7 60 3.8 SW 32 41 17 22 1012.0 1012.0 0.0
19/07:30am 14.8 7.9 7.1 60 3.8 SW 33 43 18 23 1011.5 1011.5 0.0
19/07:00am 14.1 7.0 6.5 60 3.7 WSW 33 43 18 23 1011.2 1011.2 0.0
19/06:30am 13.6 6.6 6.7 63 3.3 SW 33 41 18 22 1011.0 1011.0 0.0
19/06:00am 13.6 6.1 6.5 62 3.4 SW 35 43 19 23 1010.7 1010.7 0.0
19/05:30am 13.6 6.3 7.2 65 3.1 WSW 35 44 19 24 1010.4 1010.4 0.0
19/05:00am 13.7 5.6 7.0 64 3.3 WSW 39 46 21 25 1010.0 1010.0 0.0
19/04:30am 13.8 6.4 6.9 63 3.3 SW 35 46 19 25 1009.5 1009.5 0.0
19/04:00am 13.7 5.5 6.6 62 3.4 WSW 39 56 21 30 1009.3 1009.3 0.0
19/03:30am 13.8 5.8 7.3 65 3.2 WSW 39 52 21 28 1009.0 1009.0 0.0
19/03:00am 14.0 5.6 7.5 65 3.2 SW 41 54 22 29 1008.9 1008.9 0.0
19/02:30am 14.1 6.0 7.2 63 3.4 WSW 39 50 21 27 1008.7 1008.7 0.0
19/02:00am 14.5 6.6 8.0 65 3.2 SW 39 50 21 27 1008.8 1008.8 0.0
19/01:30am 14.6 6.5 8.8 68 2.9 WSW 41 52 22 28 1008.7 1008.7 0.0
19/01:00am 14.9 7.0 9.3 69 2.9 WSW 41 50 22 27 1008.6 1008.6 0.0
19/12:30am 15.0 6.9 8.7 66 3.2 WSW 41 50 22 27 1008.4 1008.4 0.0
19/12:00am 15.4 6.7 8.4 63 3.5 WSW 44 52 24 28 1008.3 1008.3 0.0
 
Date/Time
EDT
Temp
°C
App
Temp
°C
Dew
Point
Rel
Hum
%
Delta-T
°C
Wind Press
QNH
hPa
Press
MSL
hPa
Rain
since 9 am
mm
Dir
 
Spd
km/h
Gust
km/h
Spd
kts
Gust
kts
18/11:30pm 15.5 7.1 9.6 68 3.1 W 44 52 24 28 1008.3 1008.3 0.0
18/11:00pm 15.4 8.0 10.0 70 2.8 W 39 48 21 26 1008.5 1008.5 0.0
18/10:30pm 15.4 7.2 10.4 72 2.6 WSW 44 54 24 29 1008.1 1008.1 0.0
18/10:00pm 15.6 7.4 10.4 71 2.7 W 44 54 24 29 1007.6 1007.6 0.0
18/09:30pm 15.5 8.0 9.6 68 3.1 W 39 52 21 28 1007.1 1007.1 0.0
18/09:00pm 15.5 7.8 10.3 71 2.7 WSW 41 50 22 27 1006.7 1006.7 0.0
18/08:30pm 15.5 7.7 11.1 75 2.3 WSW 43 50 23 27 1006.6 1006.6 0.0
18/08:27pm 15.5 7.7 11.1 75 2.3 WSW 43 50 23 27 1006.6 1006.6 0.0
18/08:16pm 15.8 8.5 11.4 75 2.4 WSW 41 50 22 27 1006.5 1006.5 0.0
18/08:00pm 16.1 7.3 10.8 71 2.8 W 48 56 26 30 1006.3 1006.3 0.0
18/07:30pm 16.3 7.8 11.9 75 2.4 W 48 57 26 31 1005.9 1005.9 0.0
18/07:00pm 17.0 8.6 11.1 68 3.2 W 46 56 25 30 1005.1 1005.1 0.0
18/06:30pm 18.1 10.5 11.9 67 3.4 W 43 54 23 29 1004.8 1004.8 0.0
18/06:00pm 17.4 10.0 11.2 67 3.4 WSW 41 50 22 27 1004.3 1004.3 0.0
18/05:30pm 17.6 9.2 11.2 66 3.5 W 46 54 25 29 1004.1 1004.1 0.0
18/05:00pm 18.8 9.6 10.9 60 4.3 WSW 50 57 27 31 1004.3 1004.3 0.0
18/04:30pm 18.5 11.8 12.3 67 3.4 W 39 50 21 27 1004.6 1004.6 0.0
18/04:00pm 17.9 11.2 12.4 70 3.1 WNW 39 50 21 27 1004.5 1004.5 0.0
18/03:30pm 19.2 13.0 12.7 66 3.6 WNW 37 48 20 26 1003.7 1003.7 0.0
18/03:00pm 20.1 13.6 11.6 58 4.7 WNW 37 44 20 24 1003.7 1003.7 0.0
18/02:30pm 21.0 13.5 10.8 52 5.6 NW 41 50 22 27 1003.7 1003.7 0.0
18/02:00pm 22.2 15.7 10.4 47 6.5 NW 35 48 19 26 1003.4 1003.4 0.0
18/01:30pm 23.1 15.8 8.8 40 7.6 WNW 37 50 20 27 1003.3 1003.3 0.0
18/01:26pm 24.1 16.9 9.3 39 8.0 WNW 37 50 20 27 1003.3 1003.3 0.0
18/01:00pm 21.5 17.6 12.1 55 5.3 N 24 35 13 19 1003.4 1003.4 0.0
18/12:30pm 22.2 18.6 13.0 56 5.3 NNE 24 35 13 19 1003.6 1003.6 0.0
18/12:00pm 21.2 16.4 12.9 59 4.7 N 30 41 16 22 1003.8 1003.8 0.0
18/11:39am 21.3 16.1 12.7 58 4.9 NNE 32 50 17 27 1003.5 1003.5 0.0
18/11:30am 21.0 15.1 12.4 58 4.8 NNE 35 44 19 24 1003.5 1003.5 0.0
18/11:11am 20.3 14.4 12.3 60 4.5 NNE 35 54 19 29 1003.7 1003.7 0.0
18/11:00am 20.5 14.3 12.7 61 4.4 NNE 37 48 20 26 1003.9 1003.9 0.0
18/10:30am 20.0 14.2 12.7 63 4.1 NNE 35 52 19 28 1004.4 1004.4 0.0
18/10:00am 19.5 13.9 12.0 62 4.2 NNE 33 48 18 26 1004.9 1004.9 0.0
18/09:30am 18.8 12.6 11.4 62 4.0 NNE 35 48 19 26 1005.3 1005.3 0.0
18/09:00am 18.6 13.0 11.4 63 3.9 NNE 32 41 17 22 1005.8 1005.8 0.0
18/08:30am 17.7 13.0 10.8 64 3.7 NNE 26 33 14 18 1006.2 1006.2 0.0
18/08:00am 17.3 13.7 10.0 62 3.9 NNE 19 28 10 15 1006.5 1006.5 0.0
18/07:30am 16.4 14.3 9.8 65 3.5 NE 11 17 6 9 1006.6 1006.6 0.0
18/07:00am 14.2 11.5 8.8 70 2.7 NE 13 17 7 9 1006.9 1006.9 0.0
18/06:30am 12.3 10.2 8.2 76 2.0 N 9 13 5 7 1006.9 1006.9 0.0
18/06:00am 13.5 9.8 8.1 70 2.7 N 17 28 9 15 1006.9 1006.9 0.0
18/05:30am 13.4 9.8 8.3 71 2.5 N 17 26 9 14 1006.8 1006.8 0.0
18/05:00am 12.9 9.7 8.4 74 2.2 N 15 24 8 13 1006.8 1006.8 0.0
18/04:30am 13.0 11.5 8.5 74 2.2 NNE 6 11 3 6 1006.6 1006.6 0.0
18/04:00am 10.9 9.7 8.1 83 1.4 SE 4 7 2 4 1006.7 1006.7 0.0
18/03:30am 8.1 6.7 5.7 85 1.1 NE 2 7 1 4 1006.7 1006.7 0.0
18/03:00am 8.9 6.4 6.5 85 1.1 NE 9 15 5 8 1007.0 1007.0 0.0
18/02:30am 10.0 7.2 6.9 81 1.5 NNE 11 15 6 8 1007.1 1007.1 0.0
18/02:00am 8.8 5.1 6.2 84 1.2 NE 15 19 8 10 1007.5 1007.5 0.0
18/01:30am 9.1 5.8 6.4 83 1.2 NE 13 13 7 7 1007.7 1007.7 0.0
18/01:00am 12.3 9.1 6.8 69 2.6 N 13 15 7 8 1007.8 1007.8 0.0
18/12:30am 12.8 10.4 7.0 68 2.8 NW 9 13 5 7 1007.9 1007.9 0.0
18/12:00am 14.3 10.4 6.9 61 3.6 WNW 17 22 9 12 1008.0 1008.0 0.0
 
Date/Time
EDT
Temp
°C
App
Temp
°C
Dew
Point
Rel
Hum
%
Delta-T
°C
Wind Press
QNH
hPa
Press
MSL
hPa
Rain
since 9 am
mm
Dir
 
Spd
km/h
Gust
km/h
Spd
kts
Gust
kts
17/11:30pm 14.7 9.9 7.3 61 3.6 W 22 28 12 15 1008.2 1008.2 0.0

Other Formats:

Comma delimited format used in spreadsheet applications
http://www.bom.gov.au/fwo/IDT60801/IDT60801.94980.axf

JavaScript Object Notation format (JSON) in row-major order
http://www.bom.gov.au/fwo/IDT60801/IDT60801.94980.json